WetterOnline ( https://www.wetteronline.de )

Wetter aktuell Gresse

Aktuelles Wetter: Boizenburg (46m)

6-stündlich | Neueste Meldungen
Ortszeit Temperatur Wetter
Di, 04.08. 14:00 22.0° C fast wolkenlos
Di, 04.08. 8:00 11.9° C leicht bewölkt
Di, 04.08. 2:00 12.9° C wolkig
Mo, 03.08. 20:00 19.8° C wolkig
Mo, 03.08. 14:00 19.8° C bewölkt
Mo, 03.08. 8:00 12.9° C leicht bewölkt
Mo, 03.08. 2:00 14.1° C wolkig
So, 02.08. 20:00 18.0° C bedeckt
Ortszeit Temperatur Wetter
Di, 04.08. 16:00 22.5° C fast wolkenlos
Di, 04.08. 15:50 22.5° C fast wolkenlos
Di, 04.08. 15:40 22.7° C fast wolkenlos
Di, 04.08. 15:30 21.2° C wolkenlos
Di, 04.08. 15:20 21.2° C wolkenlos
Di, 04.08. 15:10 22.8° C wolkenlos
Di, 04.08. 15:00 22.0° C wolkenlos
Di, 04.08. 14:30 21.6° C leicht bewölkt
Di, 04.08. 14:00 22.0° C fast wolkenlos
Di, 04.08. 13:30 20.5° C fast wolkenlos
Di, 04.08. 13:00 19.3° C bewölkt
Ortszeit Relative Feuchte Sichtweite
Di, 04.08. 14:00 41% 60 km
Di, 04.08. 8:00 92% 40 km
Di, 04.08. 2:00 88% >70 km
Mo, 03.08. 20:00 55% >70 km
Mo, 03.08. 14:00 55% 55 km
Mo, 03.08. 8:00 96% 17 km
Mo, 03.08. 2:00 90% 40 km
So, 02.08. 20:00 89% 65 km
Ortszeit Relative Feuchte Sichtweite
Di, 04.08. 16:00 35% >70 km
Di, 04.08. 15:50 35% -
Di, 04.08. 15:40 36% -
Di, 04.08. 15:30 39% >70 km
Di, 04.08. 15:20 39% -
Di, 04.08. 15:10 38% -
Di, 04.08. 15:00 40% >70 km
Di, 04.08. 14:30 44% 45 km
Di, 04.08. 14:00 41% 60 km
Di, 04.08. 13:30 50% 55 km
Di, 04.08. 13:00 55% 55 km
Ortszeit Niederschlagsmenge Niederschlagsart
Di, 04.08. 14:00 0.0 l/m2 in 6 Std. -
Di, 04.08. 8:00 0.0 l/m2 in 12 Std. -
Di, 04.08. 2:00 0.0 l/m2 in 6 Std. -
Mo, 03.08. 20:00 0.1 l/m2 in 12 Std. -
Mo, 03.08. 14:00 0.1 l/m2 in 6 Std. Regen
Mo, 03.08. 8:00 0.0 l/m2 in 12 Std. -
Mo, 03.08. 2:00 0.0 l/m2 in 6 Std. -
So, 02.08. 20:00 0.3 l/m2 in 12 Std. Regen
Ortszeit Niederschlagsmenge Niederschlagsart
Di, 04.08. 16:00 0.0 l/m2 in 1 Std. -
Di, 04.08. 15:50 keine Meldung -
Di, 04.08. 15:40 keine Meldung -
Di, 04.08. 15:30 0.0 l/m2 in 1 Std. -
Di, 04.08. 15:20 keine Meldung -
Di, 04.08. 15:10 keine Meldung -
Di, 04.08. 15:00 0.0 l/m2 in 1 Std. -
Di, 04.08. 14:30 0.0 l/m2 in 1 Std. -
Di, 04.08. 14:00 0.0 l/m2 in 1 Std. -
Di, 04.08. 13:30 0.0 l/m2 in 1 Std. -
Di, 04.08. 13:00 0.0 l/m2 in 1 Std. -
Ortszeit Stärke Spitze Richtung
km/h Bft. km/h Grad Sektor
Di, 04.08. 14:00 17 3 28 250° W
Di, 04.08. 8:00 6 1 13 290° W
Di, 04.08. 2:00 6 1 13 290° W
Mo, 03.08. 20:00 7 2 30 340° N
Mo, 03.08. 14:00 11 2 24 290° W
Mo, 03.08. 8:00 7 2 14 250° W
Mo, 03.08. 2:00 7 2 29 270° W
So, 02.08. 20:00 7 2 32 280° W
Ortszeit Stärke Spitze Richtung
km/h Bft. km/h Grad Sektor
Di, 04.08. 16:00 7 2 25 290° W
Di, 04.08. 15:50 7 2 - 290° W
Di, 04.08. 15:40 7 2 - 290° W
Di, 04.08. 15:30 13 3 26 280° W
Di, 04.08. 15:20 13 3 - 280° W
Di, 04.08. 15:10 11 2 - 270° W
Di, 04.08. 15:00 14 3 29 280° W
Di, 04.08. 14:30 17 3 28 280° W
Di, 04.08. 14:00 17 3 28 250° W
Di, 04.08. 13:30 11 2 22 270° W
Di, 04.08. 13:00 11 2 20 270° W
Ortszeit Untergrenze Bedeckung Gattung
total tief tief mittel hoch
Di, 04.08. 14:00 1410 m 1/8 1/8 - - -
Di, 04.08. 8:00 1200 m 6/8 1/8 - - -
Di, 04.08. 2:00 1380 m 7/8 1/8 - - -
Mo, 03.08. 20:00 2400 m 8/8 1/8 - - -
Mo, 03.08. 14:00 1440 m 7/8 7/8 - - -
Mo, 03.08. 8:00 9000 m 6/8 0/8 - - -
Mo, 03.08. 2:00 9000 m 8/8 0/8 - - -
So, 02.08. 20:00 300 m 8/8 8/8 - - -
Ortszeit Bedeckungsgrad in Achtel und Wolkenuntergrenze
Di, 04.08. 16:00 1(2100m)
Di, 04.08. 15:50 1(2100m)
Di, 04.08. 15:40 1(2100m)
Di, 04.08. 15:30 keine Wolken
Di, 04.08. 15:20 keine Wolken
Di, 04.08. 15:10 keine Wolken
Di, 04.08. 15:00 keine Wolken
Di, 04.08. 14:30 3(1500m) 3(1800m)
Di, 04.08. 14:00 1(1410m)
Di, 04.08. 13:30 1(1800m)
Di, 04.08. 13:00 2(1080m) 3(1800m) 7(2100m)
Ortszeit Luftdruck NN (hPa) Tendenz (hPa in 3 Std.)
Di, 04.08. 14:00 1015 + 0,2
Di, 04.08. 8:00 1014 + 0,9
Di, 04.08. 2:00 1014 + 0,8
Mo, 03.08. 20:00 1012 - 0,2
Mo, 03.08. 14:00 1013 - 1,1
Mo, 03.08. 8:00 1014 + 0,1
Mo, 03.08. 2:00 1014 + 0,4
So, 02.08. 20:00 1013 + 0,7
Ortszeit Luftdruck NN (hPa) Tendenz (hPa in 3 Std.)
Di, 04.08. 16:00 1015 + 0,1
Di, 04.08. 15:50 1015 keine Meldung
Di, 04.08. 15:40 1015 keine Meldung
Di, 04.08. 15:30 1015 + 0,1
Di, 04.08. 15:20 1015 keine Meldung
Di, 04.08. 15:10 1015 keine Meldung
Di, 04.08. 15:00 1015 + 0,3
Di, 04.08. 14:30 1015 + 0,3
Di, 04.08. 14:00 1015 + 0,2
Di, 04.08. 13:30 1015 + 0,2
Di, 04.08. 13:00 1015 + 0,3
Ortszeit Schneehöhe (cm)
Di, 04.08. 14:00 -
Di, 04.08. 8:00 -
Di, 04.08. 2:00 -
Mo, 03.08. 20:00 -
Mo, 03.08. 14:00 -
Mo, 03.08. 8:00 -
Mo, 03.08. 2:00 -
So, 02.08. 20:00 -
Ortszeit Schneehöhe (cm)
Di, 04.08. 16:00 -
Di, 04.08. 15:50 -
Di, 04.08. 15:40 -
Di, 04.08. 15:30 -
Di, 04.08. 15:20 -
Di, 04.08. 15:10 -
Di, 04.08. 15:00 -
Di, 04.08. 14:30 -
Di, 04.08. 14:00 -
Di, 04.08. 13:30 -
Di, 04.08. 13:00 -
Link zu dieser Seite / Seite empfehlen

Das Wetter in ...